sensor_id;sensor_type;location;lat;lon;timestamp;temperature;humidity
15638;DHT22;26604;53.596;10.042;2023-08-06T00:01:35;16.00;99.90
15638;DHT22;26604;53.596;10.042;2023-08-06T00:04:02;15.90;99.90
15638;DHT22;26604;53.596;10.042;2023-08-06T00:06:31;15.90;99.90
15638;DHT22;26604;53.596;10.042;2023-08-06T00:08:58;15.90;99.90
15638;DHT22;26604;53.596;10.042;2023-08-06T00:11:25;15.80;99.90
15638;DHT22;26604;53.596;10.042;2023-08-06T00:13:51;15.70;99.90
15638;DHT22;26604;53.596;10.042;2023-08-06T00:16:20;15.70;99.90
15638;DHT22;26604;53.596;10.042;2023-08-06T00:18:47;15.70;99.90
15638;DHT22;26604;53.596;10.042;2023-08-06T00:21:13;15.60;99.90
15638;DHT22;26604;53.596;10.042;2023-08-06T00:23:41;15.60;99.90
15638;DHT22;26604;53.596;10.042;2023-08-06T00:26:08;15.60;99.90
15638;DHT22;26604;53.596;10.042;2023-08-06T00:28:35;15.50;99.90
15638;DHT22;26604;53.596;10.042;2023-08-06T00:31:02;15.50;99.90
15638;DHT22;26604;53.596;10.042;2023-08-06T00:33:30;15.50;99.90
15638;DHT22;26604;53.596;10.042;2023-08-06T00:35:57;15.50;99.90
15638;DHT22;26604;53.596;10.042;2023-08-06T00:38:23;15.50;99.90
15638;DHT22;26604;53.596;10.042;2023-08-06T00:40:50;15.50;99.90
15638;DHT22;26604;53.596;10.042;2023-08-06T00:43:18;15.40;99.90
15638;DHT22;26604;53.596;10.042;2023-08-06T00:45:45;15.50;99.90
15638;DHT22;26604;53.596;10.042;2023-08-06T00:48:13;15.50;99.90
15638;DHT22;26604;53.596;10.042;2023-08-06T00:50:41;15.50;99.90
15638;DHT22;26604;53.596;10.042;2023-08-06T00:53:08;15.50;99.90
15638;DHT22;26604;53.596;10.042;2023-08-06T00:55:36;15.50;99.90
15638;DHT22;26604;53.596;10.042;2023-08-06T00:58:03;15.50;99.90
15638;DHT22;26604;53.596;10.042;2023-08-06T01:00:30;15.50;99.90
15638;DHT22;26604;53.596;10.042;2023-08-06T01:02:57;15.50;99.90
15638;DHT22;26604;53.596;10.042;2023-08-06T01:05:24;15.50;99.90
15638;DHT22;26604;53.596;10.042;2023-08-06T01:08:09;15.50;99.90
15638;DHT22;26604;53.596;10.042;2023-08-06T01:10:46;15.50;99.90
15638;DHT22;26604;53.596;10.042;2023-08-06T01:13:22;15.50;99.90
15638;DHT22;26604;53.596;10.042;2023-08-06T01:15:53;15.50;99.90
15638;DHT22;26604;53.596;10.042;2023-08-06T01:18:22;15.50;99.90
15638;DHT22;26604;53.596;10.042;2023-08-06T01:20:50;15.50;99.90
15638;DHT22;26604;53.596;10.042;2023-08-06T01:23:18;15.40;99.90
15638;DHT22;26604;53.596;10.042;2023-08-06T01:25:50;15.40;99.90
15638;DHT22;26604;53.596;10.042;2023-08-06T01:28:22;15.40;99.90
15638;DHT22;26604;53.596;10.042;2023-08-06T01:30:50;15.40;99.90
15638;DHT22;26604;53.596;10.042;2023-08-06T01:33:21;15.40;99.90
15638;DHT22;26604;53.596;10.042;2023-08-06T01:35:50;15.40;99.90
15638;DHT22;26604;53.596;10.042;2023-08-06T01:38:18;15.40;99.90
15638;DHT22;26604;53.596;10.042;2023-08-06T01:40:45;15.40;99.90
15638;DHT22;26604;53.596;10.042;2023-08-06T01:43:12;15.40;99.90
15638;DHT22;26604;53.596;10.042;2023-08-06T01:45:38;15.40;99.90
15638;DHT22;26604;53.596;10.042;2023-08-06T01:48:05;15.40;99.90
15638;DHT22;26604;53.596;10.042;2023-08-06T01:50:32;15.40;99.90
15638;DHT22;26604;53.596;10.042;2023-08-06T01:53:00;15.40;99.90
15638;DHT22;26604;53.596;10.042;2023-08-06T01:55:31;15.40;99.90
15638;DHT22;26604;53.596;10.042;2023-08-06T01:57:58;15.40;99.90
15638;DHT22;26604;53.596;10.042;2023-08-06T02:00:25;15.30;99.90
15638;DHT22;26604;53.596;10.042;2023-08-06T02:02:53;15.30;99.90
15638;DHT22;26604;53.596;10.042;2023-08-06T02:05:20;15.30;99.90
15638;DHT22;26604;53.596;10.042;2023-08-06T02:07:47;15.30;99.90
15638;DHT22;26604;53.596;10.042;2023-08-06T02:10:15;15.30;99.90
15638;DHT22;26604;53.596;10.042;2023-08-06T02:12:42;15.30;99.90
15638;DHT22;26604;53.596;10.042;2023-08-06T02:15:09;15.30;99.90
15638;DHT22;26604;53.596;10.042;2023-08-06T02:17:36;15.30;99.90
15638;DHT22;26604;53.596;10.042;2023-08-06T02:20:04;15.30;99.90
15638;DHT22;26604;53.596;10.042;2023-08-06T02:22:31;15.30;99.90
15638;DHT22;26604;53.596;10.042;2023-08-06T02:24:58;15.30;99.90
15638;DHT22;26604;53.596;10.042;2023-08-06T02:27:27;15.30;99.90
15638;DHT22;26604;53.596;10.042;2023-08-06T02:29:54;15.30;99.90
15638;DHT22;26604;53.596;10.042;2023-08-06T02:32:20;15.20;99.90
15638;DHT22;26604;53.596;10.042;2023-08-06T02:34:47;15.20;99.90
15638;DHT22;26604;53.596;10.042;2023-08-06T02:37:14;15.20;99.90
15638;DHT22;26604;53.596;10.042;2023-08-06T02:39:41;15.20;99.90
15638;DHT22;26604;53.596;10.042;2023-08-06T02:42:09;15.20;99.90
15638;DHT22;26604;53.596;10.042;2023-08-06T02:44:37;15.20;99.90
15638;DHT22;26604;53.596;10.042;2023-08-06T02:47:04;15.20;99.90
15638;DHT22;26604;53.596;10.042;2023-08-06T02:49:31;15.10;99.90
15638;DHT22;26604;53.596;10.042;2023-08-06T02:51:58;15.20;99.90
15638;DHT22;26604;53.596;10.042;2023-08-06T02:54:25;15.10;99.90
15638;DHT22;26604;53.596;10.042;2023-08-06T02:56:52;15.10;99.90
15638;DHT22;26604;53.596;10.042;2023-08-06T02:59:19;15.10;99.90
15638;DHT22;26604;53.596;10.042;2023-08-06T03:01:47;15.10;99.90
15638;DHT22;26604;53.596;10.042;2023-08-06T03:04:14;15.00;99.90
15638;DHT22;26604;53.596;10.042;2023-08-06T03:06:43;15.00;99.90
15638;DHT22;26604;53.596;10.042;2023-08-06T03:09:10;15.00;99.90
15638;DHT22;26604;53.596;10.042;2023-08-06T03:11:37;15.00;99.90
15638;DHT22;26604;53.596;10.042;2023-08-06T03:14:04;15.00;99.90
15638;DHT22;26604;53.596;10.042;2023-08-06T03:16:30;15.00;99.90
15638;DHT22;26604;53.596;10.042;2023-08-06T03:18:59;15.00;99.90
15638;DHT22;26604;53.596;10.042;2023-08-06T03:21:26;15.00;99.90
15638;DHT22;26604;53.596;10.042;2023-08-06T03:23:52;15.00;99.90
15638;DHT22;26604;53.596;10.042;2023-08-06T03:26:19;15.00;99.90
15638;DHT22;26604;53.596;10.042;2023-08-06T03:28:46;15.00;99.90
15638;DHT22;26604;53.596;10.042;2023-08-06T03:31:13;15.00;99.90
15638;DHT22;26604;53.596;10.042;2023-08-06T03:33:40;15.00;99.90
15638;DHT22;26604;53.596;10.042;2023-08-06T03:36:08;15.00;99.90
15638;DHT22;26604;53.596;10.042;2023-08-06T03:38:35;15.00;99.90
15638;DHT22;26604;53.596;10.042;2023-08-06T03:41:02;15.00;99.90
15638;DHT22;26604;53.596;10.042;2023-08-06T03:43:28;15.00;99.90
15638;DHT22;26604;53.596;10.042;2023-08-06T03:45:55;15.00;99.90
15638;DHT22;26604;53.596;10.042;2023-08-06T03:48:22;15.00;99.90
15638;DHT22;26604;53.596;10.042;2023-08-06T03:50:52;15.00;99.90
15638;DHT22;26604;53.596;10.042;2023-08-06T03:53:20;16.60;99.90
15638;DHT22;26604;53.596;10.042;2023-08-06T03:55:47;15.00;99.90
15638;DHT22;26604;53.596;10.042;2023-08-06T03:58:14;15.10;99.90
15638;DHT22;26604;53.596;10.042;2023-08-06T04:00:41;15.00;99.90
15638;DHT22;26604;53.596;10.042;2023-08-06T04:03:08;15.00;99.90
15638;DHT22;26604;53.596;10.042;2023-08-06T04:05:34;15.00;99.90
15638;DHT22;26604;53.596;10.042;2023-08-06T04:08:01;15.00;99.90
15638;DHT22;26604;53.596;10.042;2023-08-06T04:10:30;15.00;99.90
15638;DHT22;26604;53.596;10.042;2023-08-06T04:12:56;14.90;99.90
15638;DHT22;26604;53.596;10.042;2023-08-06T04:15:23;15.00;99.90
15638;DHT22;26604;53.596;10.042;2023-08-06T04:17:50;15.00;99.90
15638;DHT22;26604;53.596;10.042;2023-08-06T04:20:17;15.00;99.90
15638;DHT22;26604;53.596;10.042;2023-08-06T04:22:44;15.00;99.90
15638;DHT22;26604;53.596;10.042;2023-08-06T04:25:11;14.90;99.90
15638;DHT22;26604;53.596;10.042;2023-08-06T04:27:39;15.00;99.90
15638;DHT22;26604;53.596;10.042;2023-08-06T04:30:08;15.00;99.90
15638;DHT22;26604;53.596;10.042;2023-08-06T04:32:34;15.00;99.90
15638;DHT22;26604;53.596;10.042;2023-08-06T04:35:01;14.90;99.90
15638;DHT22;26604;53.596;10.042;2023-08-06T04:37:28;14.90;99.90
15638;DHT22;26604;53.596;10.042;2023-08-06T04:39:55;15.00;99.90
15638;DHT22;26604;53.596;10.042;2023-08-06T04:42:22;15.00;99.90
15638;DHT22;26604;53.596;10.042;2023-08-06T04:44:50;15.00;99.90
15638;DHT22;26604;53.596;10.042;2023-08-06T04:47:17;15.00;99.90
15638;DHT22;26604;53.596;10.042;2023-08-06T04:49:44;15.00;99.90
15638;DHT22;26604;53.596;10.042;2023-08-06T04:52:11;15.00;99.90
15638;DHT22;26604;53.596;10.042;2023-08-06T04:54:38;15.00;99.90
15638;DHT22;26604;53.596;10.042;2023-08-06T04:57:05;15.10;99.90
15638;DHT22;26604;53.596;10.042;2023-08-06T04:59:32;15.10;99.90
15638;DHT22;26604;53.596;10.042;2023-08-06T05:02:00;15.10;99.90
15638;DHT22;26604;53.596;10.042;2023-08-06T05:04:27;15.10;99.90
15638;DHT22;26604;53.596;10.042;2023-08-06T05:06:54;15.10;99.90
15638;DHT22;26604;53.596;10.042;2023-08-06T05:09:21;15.10;99.90
15638;DHT22;26604;53.596;10.042;2023-08-06T05:11:48;15.10;99.90
15638;DHT22;26604;53.596;10.042;2023-08-06T05:14:15;15.10;99.90
15638;DHT22;26604;53.596;10.042;2023-08-06T05:16:42;15.20;99.90
15638;DHT22;26604;53.596;10.042;2023-08-06T05:19:11;15.10;99.90
15638;DHT22;26604;53.596;10.042;2023-08-06T05:21:37;15.10;99.90
15638;DHT22;26604;53.596;10.042;2023-08-06T05:24:04;15.20;99.90
15638;DHT22;26604;53.596;10.042;2023-08-06T05:26:31;15.20;99.90
15638;DHT22;26604;53.596;10.042;2023-08-06T05:28:59;15.20;99.90
15638;DHT22;26604;53.596;10.042;2023-08-06T05:31:26;15.20;99.90
15638;DHT22;26604;53.596;10.042;2023-08-06T05:33:54;15.30;99.90
15638;DHT22;26604;53.596;10.042;2023-08-06T05:36:22;15.30;99.90
15638;DHT22;26604;53.596;10.042;2023-08-06T05:38:49;15.40;99.90
15638;DHT22;26604;53.596;10.042;2023-08-06T05:41:16;15.40;99.90
15638;DHT22;26604;53.596;10.042;2023-08-06T05:43:43;15.50;99.90
15638;DHT22;26604;53.596;10.042;2023-08-06T05:46:09;15.50;99.90
15638;DHT22;26604;53.596;10.042;2023-08-06T05:48:36;15.60;99.90
15638;DHT22;26604;53.596;10.042;2023-08-06T05:51:03;15.70;99.90
15638;DHT22;26604;53.596;10.042;2023-08-06T05:53:31;15.80;99.90
15638;DHT22;26604;53.596;10.042;2023-08-06T05:55:58;15.80;99.90
15638;DHT22;26604;53.596;10.042;2023-08-06T05:58:25;15.90;99.90
15638;DHT22;26604;53.596;10.042;2023-08-06T06:00:54;16.00;99.90
15638;DHT22;26604;53.596;10.042;2023-08-06T06:03:21;16.00;99.90
15638;DHT22;26604;53.596;10.042;2023-08-06T06:05:48;16.10;99.90
15638;DHT22;26604;53.596;10.042;2023-08-06T06:08:15;16.10;99.90
15638;DHT22;26604;53.596;10.042;2023-08-06T06:10:43;16.10;99.90
15638;DHT22;26604;53.596;10.042;2023-08-06T06:13:10;16.20;99.90
15638;DHT22;26604;53.596;10.042;2023-08-06T06:15:37;16.20;99.90
15638;DHT22;26604;53.596;10.042;2023-08-06T06:18:03;16.20;99.90
15638;DHT22;26604;53.596;10.042;2023-08-06T06:20:32;16.10;99.90
15638;DHT22;26604;53.596;10.042;2023-08-06T06:22:59;16.10;99.90
15638;DHT22;26604;53.596;10.042;2023-08-06T06:25:26;16.10;99.90
15638;DHT22;26604;53.596;10.042;2023-08-06T06:27:54;16.10;99.90
15638;DHT22;26604;53.596;10.042;2023-08-06T06:30:21;16.20;99.90
15638;DHT22;26604;53.596;10.042;2023-08-06T06:32:48;16.30;99.90
15638;DHT22;26604;53.596;10.042;2023-08-06T06:35:15;16.40;99.90
15638;DHT22;26604;53.596;10.042;2023-08-06T06:37:42;16.50;99.90
15638;DHT22;26604;53.596;10.042;2023-08-06T06:40:09;16.60;99.90
15638;DHT22;26604;53.596;10.042;2023-08-06T06:42:36;16.70;99.90
15638;DHT22;26604;53.596;10.042;2023-08-06T06:45:06;16.80;99.90
15638;DHT22;26604;53.596;10.042;2023-08-06T06:47:33;16.80;99.90
15638;DHT22;26604;53.596;10.042;2023-08-06T06:50:00;16.90;99.90
15638;DHT22;26604;53.596;10.042;2023-08-06T06:52:27;17.10;99.90
15638;DHT22;26604;53.596;10.042;2023-08-06T06:54:53;17.20;99.90
15638;DHT22;26604;53.596;10.042;2023-08-06T06:57:20;17.20;99.90
15638;DHT22;26604;53.596;10.042;2023-08-06T06:59:47;17.20;99.90
15638;DHT22;26604;53.596;10.042;2023-08-06T07:02:15;17.30;99.90
15638;DHT22;26604;53.596;10.042;2023-08-06T07:04:42;17.40;99.90
15638;DHT22;26604;53.596;10.042;2023-08-06T07:07:09;17.40;99.90
15638;DHT22;26604;53.596;10.042;2023-08-06T07:09:36;17.50;99.90
15638;DHT22;26604;53.596;10.042;2023-08-06T07:12:04;17.50;99.90
15638;DHT22;26604;53.596;10.042;2023-08-06T07:14:31;17.60;99.90
15638;DHT22;26604;53.596;10.042;2023-08-06T07:16:57;17.70;99.90
15638;DHT22;26604;53.596;10.042;2023-08-06T07:19:26;17.80;99.90
15638;DHT22;26604;53.596;10.042;2023-08-06T07:21:52;18.00;99.90
15638;DHT22;26604;53.596;10.042;2023-08-06T07:24:21;18.10;99.90
15638;DHT22;26604;53.596;10.042;2023-08-06T07:26:48;18.20;99.90
15638;DHT22;26604;53.596;10.042;2023-08-06T07:29:14;18.30;99.90
15638;DHT22;26604;53.596;10.042;2023-08-06T07:31:45;18.50;99.90
15638;DHT22;26604;53.596;10.042;2023-08-06T07:34:12;18.60;99.90
15638;DHT22;26604;53.596;10.042;2023-08-06T07:36:40;18.70;99.90
15638;DHT22;26604;53.596;10.042;2023-08-06T07:39:09;18.70;99.90
15638;DHT22;26604;53.596;10.042;2023-08-06T07:41:36;18.80;99.90
15638;DHT22;26604;53.596;10.042;2023-08-06T07:44:04;18.90;99.90
15638;DHT22;26604;53.596;10.042;2023-08-06T07:46:31;18.90;99.90
15638;DHT22;26604;53.596;10.042;2023-08-06T07:49:00;18.90;99.90
15638;DHT22;26604;53.596;10.042;2023-08-06T07:51:28;19.00;99.90
15638;DHT22;26604;53.596;10.042;2023-08-06T07:53:56;19.00;99.90
15638;DHT22;26604;53.596;10.042;2023-08-06T07:56:23;19.00;99.90
15638;DHT22;26604;53.596;10.042;2023-08-06T07:58:50;18.90;99.90
15638;DHT22;26604;53.596;10.042;2023-08-06T08:01:17;18.90;99.90
15638;DHT22;26604;53.596;10.042;2023-08-06T08:03:43;18.80;99.90
15638;DHT22;26604;53.596;10.042;2023-08-06T08:06:11;18.80;99.90
15638;DHT22;26604;53.596;10.042;2023-08-06T08:08:38;18.80;99.90
15638;DHT22;26604;53.596;10.042;2023-08-06T08:11:07;18.70;99.90
15638;DHT22;26604;53.596;10.042;2023-08-06T08:13:33;18.70;99.90
15638;DHT22;26604;53.596;10.042;2023-08-06T08:16:01;18.60;99.90
15638;DHT22;26604;53.596;10.042;2023-08-06T08:18:28;18.70;99.90
15638;DHT22;26604;53.596;10.042;2023-08-06T08:20:56;18.60;99.90
15638;DHT22;26604;53.596;10.042;2023-08-06T08:23:23;18.70;99.90
15638;DHT22;26604;53.596;10.042;2023-08-06T08:25:50;18.80;99.90
15638;DHT22;26604;53.596;10.042;2023-08-06T08:28:18;18.90;99.90
15638;DHT22;26604;53.596;10.042;2023-08-06T08:30:45;19.00;99.90
15638;DHT22;26604;53.596;10.042;2023-08-06T08:33:13;19.10;99.90
15638;DHT22;26604;53.596;10.042;2023-08-06T08:35:39;19.30;99.90
15638;DHT22;26604;53.596;10.042;2023-08-06T08:38:06;19.40;99.90
15638;DHT22;26604;53.596;10.042;2023-08-06T08:40:37;19.40;99.90
15638;DHT22;26604;53.596;10.042;2023-08-06T08:43:11;19.40;99.90
15638;DHT22;26604;53.596;10.042;2023-08-06T08:45:40;19.30;99.90
15638;DHT22;26604;53.596;10.042;2023-08-06T08:48:09;19.20;99.90
15638;DHT22;26604;53.596;10.042;2023-08-06T08:50:37;19.10;99.90
15638;DHT22;26604;53.596;10.042;2023-08-06T08:53:05;19.00;99.90
15638;DHT22;26604;53.596;10.042;2023-08-06T08:55:32;19.00;99.90
15638;DHT22;26604;53.596;10.042;2023-08-06T08:57:59;18.90;99.90
15638;DHT22;26604;53.596;10.042;2023-08-06T09:00:28;18.80;99.90
15638;DHT22;26604;53.596;10.042;2023-08-06T09:02:57;18.80;99.90
15638;DHT22;26604;53.596;10.042;2023-08-06T09:05:26;18.60;99.90
15638;DHT22;26604;53.596;10.042;2023-08-06T09:07:59;18.50;99.90
15638;DHT22;26604;53.596;10.042;2023-08-06T09:10:28;18.50;99.90
15638;DHT22;26604;53.596;10.042;2023-08-06T09:12:56;18.40;99.90
15638;DHT22;26604;53.596;10.042;2023-08-06T09:15:24;18.50;99.90
15638;DHT22;26604;53.596;10.042;2023-08-06T09:17:52;18.50;99.90
15638;DHT22;26604;53.596;10.042;2023-08-06T09:20:20;18.50;99.90
15638;DHT22;26604;53.596;10.042;2023-08-06T09:22:47;18.40;99.90
15638;DHT22;26604;53.596;10.042;2023-08-06T09:25:21;18.40;99.90
15638;DHT22;26604;53.596;10.042;2023-08-06T09:27:49;18.40;99.90
15638;DHT22;26604;53.596;10.042;2023-08-06T09:30:29;18.40;99.90
15638;DHT22;26604;53.596;10.042;2023-08-06T09:32:57;18.30;99.90
15638;DHT22;26604;53.596;10.042;2023-08-06T09:35:27;18.20;99.90
15638;DHT22;26604;53.596;10.042;2023-08-06T09:37:54;18.20;99.90
15638;DHT22;26604;53.596;10.042;2023-08-06T09:40:28;18.00;99.90
15638;DHT22;26604;53.596;10.042;2023-08-06T09:42:55;17.90;99.90
15638;DHT22;26604;53.596;10.042;2023-08-06T09:45:22;17.90;99.90
15638;DHT22;26604;53.596;10.042;2023-08-06T09:47:52;17.90;99.90
15638;DHT22;26604;53.596;10.042;2023-08-06T09:50:29;17.90;99.90
15638;DHT22;26604;53.596;10.042;2023-08-06T09:52:57;17.90;99.90
15638;DHT22;26604;53.596;10.042;2023-08-06T09:55:25;17.90;99.90
15638;DHT22;26604;53.596;10.042;2023-08-06T09:57:53;18.00;99.90
15638;DHT22;26604;53.596;10.042;2023-08-06T10:00:20;18.00;99.90
15638;DHT22;26604;53.596;10.042;2023-08-06T10:02:47;18.00;99.90
15638;DHT22;26604;53.596;10.042;2023-08-06T10:05:16;18.00;99.90
15638;DHT22;26604;53.596;10.042;2023-08-06T10:07:45;18.00;99.90
15638;DHT22;26604;53.596;10.042;2023-08-06T10:10:13;18.00;99.90
15638;DHT22;26604;53.596;10.042;2023-08-06T10:12:42;18.00;99.90
15638;DHT22;26604;53.596;10.042;2023-08-06T10:15:14;17.90;99.90
15638;DHT22;26604;53.596;10.042;2023-08-06T10:17:42;17.90;99.90
15638;DHT22;26604;53.596;10.042;2023-08-06T10:20:10;18.00;99.90
15638;DHT22;26604;53.596;10.042;2023-08-06T10:22:42;18.10;99.90
15638;DHT22;26604;53.596;10.042;2023-08-06T10:25:10;18.10;99.90
15638;DHT22;26604;53.596;10.042;2023-08-06T10:27:56;18.20;99.90
15638;DHT22;26604;53.596;10.042;2023-08-06T10:30:24;18.20;99.90
15638;DHT22;26604;53.596;10.042;2023-08-06T10:32:55;18.30;99.90
15638;DHT22;26604;53.596;10.042;2023-08-06T10:35:35;18.30;99.90
15638;DHT22;26604;53.596;10.042;2023-08-06T10:38:07;18.40;99.90
15638;DHT22;26604;53.596;10.042;2023-08-06T10:40:36;18.40;99.90
15638;DHT22;26604;53.596;10.042;2023-08-06T10:43:06;18.50;99.90
15638;DHT22;26604;53.596;10.042;2023-08-06T10:45:35;18.50;99.90
15638;DHT22;26604;53.596;10.042;2023-08-06T10:48:05;18.50;99.90
15638;DHT22;26604;53.596;10.042;2023-08-06T10:50:32;18.50;99.90
15638;DHT22;26604;53.596;10.042;2023-08-06T10:53:04;18.60;99.90
15638;DHT22;26604;53.596;10.042;2023-08-06T10:55:36;18.70;99.90
15638;DHT22;26604;53.596;10.042;2023-08-06T10:58:06;18.60;99.90
15638;DHT22;26604;53.596;10.042;2023-08-06T11:00:33;18.60;99.90
15638;DHT22;26604;53.596;10.042;2023-08-06T11:03:00;18.70;99.90
15638;DHT22;26604;53.596;10.042;2023-08-06T11:05:27;18.70;99.90
15638;DHT22;26604;53.596;10.042;2023-08-06T11:07:54;18.70;99.90
15638;DHT22;26604;53.596;10.042;2023-08-06T11:10:20;18.80;99.90
15638;DHT22;26604;53.596;10.042;2023-08-06T11:12:49;18.90;99.90
15638;DHT22;26604;53.596;10.042;2023-08-06T11:15:23;18.90;99.90
15638;DHT22;26604;53.596;10.042;2023-08-06T11:17:50;19.00;99.90
15638;DHT22;26604;53.596;10.042;2023-08-06T11:20:17;18.90;99.90
15638;DHT22;26604;53.596;10.042;2023-08-06T11:22:47;18.90;99.90
15638;DHT22;26604;53.596;10.042;2023-08-06T11:25:14;19.00;99.90
15638;DHT22;26604;53.596;10.042;2023-08-06T11:27:45;19.00;99.90
15638;DHT22;26604;53.596;10.042;2023-08-06T11:30:14;19.00;99.90
15638;DHT22;26604;53.596;10.042;2023-08-06T11:32:47;19.10;99.90
15638;DHT22;26604;53.596;10.042;2023-08-06T11:35:15;19.20;99.90
15638;DHT22;26604;53.596;10.042;2023-08-06T11:37:44;19.20;99.90
15638;DHT22;26604;53.596;10.042;2023-08-06T11:40:11;19.20;99.90
15638;DHT22;26604;53.596;10.042;2023-08-06T11:42:38;19.10;99.90
15638;DHT22;26604;53.596;10.042;2023-08-06T11:45:06;19.20;99.90
15638;DHT22;26604;53.596;10.042;2023-08-06T11:47:38;19.10;99.90
15638;DHT22;26604;53.596;10.042;2023-08-06T11:50:06;19.20;99.90
15638;DHT22;26604;53.596;10.042;2023-08-06T11:52:33;19.10;99.90
15638;DHT22;26604;53.596;10.042;2023-08-06T11:55:01;19.20;99.90
15638;DHT22;26604;53.596;10.042;2023-08-06T11:57:31;19.20;99.90
15638;DHT22;26604;53.596;10.042;2023-08-06T12:00:02;19.30;99.90
15638;DHT22;26604;53.596;10.042;2023-08-06T12:02:31;19.20;99.90
15638;DHT22;26604;53.596;10.042;2023-08-06T12:05:05;19.20;99.90
15638;DHT22;26604;53.596;10.042;2023-08-06T12:07:38;19.10;99.90
15638;DHT22;26604;53.596;10.042;2023-08-06T12:10:06;19.00;99.90
15638;DHT22;26604;53.596;10.042;2023-08-06T12:12:34;19.10;99.90
15638;DHT22;26604;53.596;10.042;2023-08-06T12:15:01;19.10;99.90
15638;DHT22;26604;53.596;10.042;2023-08-06T12:17:28;19.10;99.90
15638;DHT22;26604;53.596;10.042;2023-08-06T12:19:55;19.30;99.90
15638;DHT22;26604;53.596;10.042;2023-08-06T12:22:23;19.50;99.90
15638;DHT22;26604;53.596;10.042;2023-08-06T12:24:50;19.30;99.90
15638;DHT22;26604;53.596;10.042;2023-08-06T12:27:17;19.30;99.90
15638;DHT22;26604;53.596;10.042;2023-08-06T12:29:48;19.50;99.90
15638;DHT22;26604;53.596;10.042;2023-08-06T12:32:15;19.80;99.90
15638;DHT22;26604;53.596;10.042;2023-08-06T12:34:42;19.90;99.90
15638;DHT22;26604;53.596;10.042;2023-08-06T12:37:09;20.10;99.90
15638;DHT22;26604;53.596;10.042;2023-08-06T12:39:38;20.20;99.90
15638;DHT22;26604;53.596;10.042;2023-08-06T12:42:05;20.40;99.90
15638;DHT22;26604;53.596;10.042;2023-08-06T12:44:34;20.60;99.90
15638;DHT22;26604;53.596;10.042;2023-08-06T12:47:01;20.80;99.90
15638;DHT22;26604;53.596;10.042;2023-08-06T12:49:28;20.90;99.90
15638;DHT22;26604;53.596;10.042;2023-08-06T12:51:57;21.00;99.90
15638;DHT22;26604;53.596;10.042;2023-08-06T12:54:25;21.30;99.90
15638;DHT22;26604;53.596;10.042;2023-08-06T12:56:54;21.50;99.90
15638;DHT22;26604;53.596;10.042;2023-08-06T12:59:20;21.70;99.90
15638;DHT22;26604;53.596;10.042;2023-08-06T13:01:47;21.90;99.90
15638;DHT22;26604;53.596;10.042;2023-08-06T13:04:14;21.70;99.90
15638;DHT22;26604;53.596;10.042;2023-08-06T13:06:42;21.40;99.90
15638;DHT22;26604;53.596;10.042;2023-08-06T13:09:09;21.20;99.90
15638;DHT22;26604;53.596;10.042;2023-08-06T13:11:39;20.90;99.90
15638;DHT22;26604;53.596;10.042;2023-08-06T13:14:09;20.60;99.90
15638;DHT22;26604;53.596;10.042;2023-08-06T13:16:37;20.40;99.90
15638;DHT22;26604;53.596;10.042;2023-08-06T13:19:05;20.70;99.90
15638;DHT22;26604;53.596;10.042;2023-08-06T13:21:34;20.90;99.90
15638;DHT22;26604;53.596;10.042;2023-08-06T13:24:01;21.10;99.90
15638;DHT22;26604;53.596;10.042;2023-08-06T13:26:28;21.40;99.90
15638;DHT22;26604;53.596;10.042;2023-08-06T13:28:57;21.90;99.90
15638;DHT22;26604;53.596;10.042;2023-08-06T13:31:26;22.00;99.90
15638;DHT22;26604;53.596;10.042;2023-08-06T13:33:54;21.90;99.90
15638;DHT22;26604;53.596;10.042;2023-08-06T13:36:23;21.80;99.90
15638;DHT22;26604;53.596;10.042;2023-08-06T13:38:53;21.50;99.90
15638;DHT22;26604;53.596;10.042;2023-08-06T13:41:20;21.20;99.90
15638;DHT22;26604;53.596;10.042;2023-08-06T13:43:47;20.80;99.90
15638;DHT22;26604;53.596;10.042;2023-08-06T13:46:14;20.80;99.90
15638;DHT22;26604;53.596;10.042;2023-08-06T13:48:43;20.70;99.90
15638;DHT22;26604;53.596;10.042;2023-08-06T13:51:11;20.80;99.90
15638;DHT22;26604;53.596;10.042;2023-08-06T13:53:38;21.00;99.90
15638;DHT22;26604;53.596;10.042;2023-08-06T13:56:05;21.20;99.90
15638;DHT22;26604;53.596;10.042;2023-08-06T13:58:32;21.50;99.90
15638;DHT22;26604;53.596;10.042;2023-08-06T14:00:59;21.60;99.90
15638;DHT22;26604;53.596;10.042;2023-08-06T14:03:26;21.70;99.90
15638;DHT22;26604;53.596;10.042;2023-08-06T14:05:55;21.70;99.90
15638;DHT22;26604;53.596;10.042;2023-08-06T14:08:22;21.80;99.90
15638;DHT22;26604;53.596;10.042;2023-08-06T14:10:49;21.90;99.90
15638;DHT22;26604;53.596;10.042;2023-08-06T14:13:16;22.10;99.90
15638;DHT22;26604;53.596;10.042;2023-08-06T14:15:43;21.90;99.90
15638;DHT22;26604;53.596;10.042;2023-08-06T14:18:12;21.80;99.90
15638;DHT22;26604;53.596;10.042;2023-08-06T14:20:39;21.80;99.90
15638;DHT22;26604;53.596;10.042;2023-08-06T14:23:07;21.70;99.90
15638;DHT22;26604;53.596;10.042;2023-08-06T14:25:34;21.60;99.90
15638;DHT22;26604;53.596;10.042;2023-08-06T14:28:01;21.70;99.90
15638;DHT22;26604;53.596;10.042;2023-08-06T14:30:28;21.70;99.90
15638;DHT22;26604;53.596;10.042;2023-08-06T14:32:55;21.40;99.90
15638;DHT22;26604;53.596;10.042;2023-08-06T14:35:22;21.20;99.90
15638;DHT22;26604;53.596;10.042;2023-08-06T14:37:49;21.10;99.90
15638;DHT22;26604;53.596;10.042;2023-08-06T14:40:17;20.70;99.90
15638;DHT22;26604;53.596;10.042;2023-08-06T14:42:44;20.40;99.90
15638;DHT22;26604;53.596;10.042;2023-08-06T14:45:11;20.30;99.90
15638;DHT22;26604;53.596;10.042;2023-08-06T14:47:38;20.30;99.90
15638;DHT22;26604;53.596;10.042;2023-08-06T14:50:05;20.50;99.90
15638;DHT22;26604;53.596;10.042;2023-08-06T14:52:32;20.90;99.90
15638;DHT22;26604;53.596;10.042;2023-08-06T14:55:00;20.90;99.90
15638;DHT22;26604;53.596;10.042;2023-08-06T14:57:32;20.90;99.90
15638;DHT22;26604;53.596;10.042;2023-08-06T14:59:59;20.70;99.90
15638;DHT22;26604;53.596;10.042;2023-08-06T15:02:26;20.60;99.90
15638;DHT22;26604;53.596;10.042;2023-08-06T15:04:55;20.60;99.90
15638;DHT22;26604;53.596;10.042;2023-08-06T15:07:21;20.50;99.90
15638;DHT22;26604;53.596;10.042;2023-08-06T15:09:48;20.00;99.90
15638;DHT22;26604;53.596;10.042;2023-08-06T15:12:15;19.80;99.90
15638;DHT22;26604;53.596;10.042;2023-08-06T15:14:44;19.70;99.90
15638;DHT22;26604;53.596;10.042;2023-08-06T15:17:11;19.60;99.90
15638;DHT22;26604;53.596;10.042;2023-08-06T15:19:40;19.70;99.90